Latest Weather Observations for Mount Nowa Nowa

IDV60801

Issued at 9:31 pm EST Tuesday 28 April 2015 (issued every 30 minutes, with the page automatically refreshed every 10 minutes)

About weather observations | Map of weather stations | Latest weather observations for VIC | Other Formats
Station Details ID: 084144 Name: MOUNT NOWA NOWA Lat: -37.69 Lon: 148.09 Height: 350.0 m
Data from the previous 72 hours. | See also: Recent months at Mount Nowa Nowa
Date/Time
EST
Temp
°C
App
Temp
°C
Dew
Point
Rel
Hum
%
Delta-T
°C
Wind Press
QNH
hPa
Press
MSL
hPa
Rain
since 9 am
mm
Dir
 
Spd
km/h
Gust
km/h
Spd
kts
Gust
kts
28/09:30pm 9.5 8.3 8.1 91 0.7 WNW 4 7 2 4 - - 0.0
28/09:00pm 9.7 8.5 8.1 90 0.8 WNW 4 4 2 2 - - 0.0
28/08:30pm 10.0 8.9 8.4 90 0.8 NW 4 6 2 3 - - 0.0
28/08:00pm 10.3 9.1 8.2 87 1.0 WSW 4 6 2 3 - - 0.0
28/07:30pm 10.2 8.9 7.6 84 1.3 SW 4 6 2 3 - - 0.0
28/07:00pm 10.6 8.9 7.5 81 1.5 S 6 7 3 4 - - 0.0
28/06:30pm 10.6 8.9 7.5 81 1.5 SSE 6 7 3 4 - - 0.0
28/06:00pm 10.7 10.1 7.4 80 1.6 CALM 0 4 0 2 - - 0.0
28/05:30pm 11.0 10.5 7.7 80 1.6 CALM 0 0 0 0 - - 0.0
28/05:00pm 11.6 11.2 8.1 79 1.7 CALM 0 4 0 2 - - 0.0
28/04:30pm 12.0 11.7 8.5 79 1.8 CALM 0 4 0 2 - - 0.0
28/04:00pm 12.3 11.2 8.4 77 2.0 WSW 4 7 2 4 - - 0.0
28/03:30pm 12.8 11.7 8.5 75 2.2 SW 4 11 2 6 - - 0.0
28/03:00pm 13.4 12.7 8.5 72 2.5 WSW 2 6 1 3 - - 0.0
28/02:30pm 13.4 11.7 7.6 68 2.9 WSW 6 9 3 5 - - 0.0
28/02:00pm 14.8 13.3 8.3 65 3.3 WSW 6 9 3 5 - - 0.0
28/01:30pm 12.8 10.8 7.3 69 2.7 W 7 13 4 7 - - 0.0
28/01:00pm 11.9 10.1 7.0 72 2.4 W 6 9 3 5 - - 0.0
28/12:30pm 13.4 11.7 7.4 67 3.0 WNW 6 11 3 6 - - 0.0
28/12:00pm 12.7 10.7 7.0 68 2.8 WSW 7 15 4 8 - - 0.0
28/11:30am 12.6 10.3 7.3 70 2.6 W 9 17 5 9 - - 0.0
28/11:00am 13.3 11.7 8.0 70 2.7 W 6 9 3 5 - - 0.0
28/10:30am 12.2 10.6 8.1 76 2.1 W 6 13 3 7 - - 0.0
28/10:00am 11.1 8.8 7.6 79 1.7 W 9 17 5 9 - - 0.0
28/09:30am 10.1 8.3 7.9 86 1.1 W 7 15 4 8 - - 0.0
28/09:00am 9.2 6.9 7.3 88 0.9 W 9 15 5 8 - - 0.0
28/08:30am 8.7 6.3 7.0 89 0.8 W 9 13 5 7 - - 0.0
28/08:00am 8.3 5.9 6.8 90 0.7 W 9 13 5 7 - - 0.0
28/07:30am 8.1 6.0 6.7 91 0.7 W 7 15 4 8 - - 0.0
28/07:00am 7.8 5.3 6.4 91 0.7 W 9 15 5 8 - - 0.0
28/06:30am 7.7 5.6 6.5 92 0.6 W 7 13 4 7 - - 0.0
28/06:00am 7.6 5.1 6.4 92 0.6 W 9 17 5 9 - - 0.0
28/05:30am 7.9 5.0 6.5 91 0.7 W 11 15 6 8 - - 0.0
28/05:00am 8.2 5.3 6.7 90 0.7 W 11 17 6 9 - - 0.0
28/04:30am 8.2 5.4 6.8 91 0.7 W 11 15 6 8 - - 0.0
28/04:00am 7.9 5.1 6.8 93 0.5 W 11 15 6 8 - - 0.0
28/03:30am 8.0 4.8 6.8 92 0.6 W 13 15 7 8 - - 0.0
28/03:00am 8.2 5.4 7.0 92 0.6 W 11 13 6 7 - - 0.0
28/02:30am 8.3 5.5 7.1 92 0.6 W 11 15 6 8 - - 0.0
28/02:00am 8.3 5.9 7.2 93 0.5 W 9 13 5 7 - - 0.0
28/01:30am 8.5 6.2 7.4 93 0.5 W 9 13 5 7 - - 0.0
28/01:00am 8.7 6.4 7.6 93 0.5 W 9 17 5 9 - - 0.0
28/12:30am 8.6 6.4 7.7 94 0.4 W 9 17 5 9 - - 0.0
28/12:00am 8.8 6.6 7.7 93 0.5 W 9 17 5 9 - - 0.0
 
Date/Time
EST
Temp
°C
App
Temp
°C
Dew
Point
Rel
Hum
%
Delta-T
°C
Wind Press
QNH
hPa
Press
MSL
hPa
Rain
since 9 am
mm
Dir
 
Spd
km/h
Gust
km/h
Spd
kts
Gust
kts
27/11:30pm 8.9 6.7 7.8 93 0.5 W 9 20 5 11 - - 0.0
27/11:00pm 8.9 6.7 7.8 93 0.5 W 9 17 5 9 - - 0.0
27/10:30pm 9.0 6.8 7.9 93 0.5 W 9 17 5 9 - - 0.0
27/10:00pm 9.3 7.6 8.2 93 0.5 W 7 15 4 8 - - 0.0
27/09:30pm 9.6 7.9 8.4 92 0.6 W 7 15 4 8 - - 0.0
27/09:00pm 9.7 8.0 8.3 91 0.7 WSW 7 17 4 9 - - 0.0
27/08:30pm 9.9 8.2 8.2 89 0.8 W 7 17 4 9 - - 0.0
27/08:00pm 10.0 8.2 8.1 88 0.9 W 7 17 4 9 - - 0.0
27/07:30pm 10.1 8.3 8.0 87 1.0 W 7 15 4 8 - - 0.0
27/07:00pm 10.2 8.6 8.6 90 0.8 W 7 15 4 8 - - 0.0
27/06:30pm 10.3 8.8 9.2 93 0.6 WSW 7 11 4 6 - - 0.0
27/06:00pm 10.4 9.0 9.0 91 0.7 WSW 6 13 3 7 - - 0.0
27/05:30pm 10.3 8.9 8.7 90 0.8 W 6 9 3 5 - - 0.0
27/05:00pm 10.9 9.5 8.8 87 1.1 WSW 6 17 3 9 - - 0.0
27/04:30pm 11.4 9.9 8.4 82 1.5 SW 6 15 3 8 - - 0.0
27/04:00pm 12.3 10.9 8.8 79 1.8 WSW 6 15 3 8 - - 0.0
27/03:30pm 11.8 10.3 8.6 81 1.6 WSW 6 13 3 7 - - 0.0
27/03:00pm 12.9 11.5 9.0 77 2.0 WSW 6 11 3 6 - - 0.0
27/02:30pm 12.0 10.0 8.8 81 1.6 WSW 9 17 5 9 - - 0.0
27/02:00pm 12.1 10.0 8.2 77 2.0 WSW 9 17 5 9 - - 0.0
27/01:30pm 11.5 9.3 7.8 78 1.8 W 9 24 5 13 - - 0.0
27/01:00pm 11.7 10.1 8.6 81 1.6 W 7 15 4 8 - - 0.0
27/12:30pm 11.2 9.2 8.6 84 1.3 WSW 9 20 5 11 - - 0.0
27/12:00pm 10.8 8.6 7.9 82 1.4 W 9 24 5 13 - - 0.0
27/11:30am 10.9 9.1 7.8 81 1.5 W 7 20 4 11 - - 0.0
27/11:00am 11.3 9.3 8.5 83 1.4 W 9 20 5 11 - - 0.0
27/10:30am 10.4 7.8 7.8 84 1.3 W 11 24 6 13 - - 0.0
27/10:00am 10.0 7.0 7.6 85 1.2 W 13 28 7 15 - - 0.0
27/09:30am 9.9 7.3 7.8 87 1.0 W 11 24 6 13 - - 0.0
27/09:00am 9.4 6.4 7.7 89 0.8 W 13 33 7 18 - - 0.4
27/08:30am 8.7 6.1 7.8 94 0.4 W 11 20 6 11 - - 0.4
27/08:00am 8.5 5.9 7.6 94 0.4 W 11 30 6 16 - - 0.4
27/07:30am 8.3 5.6 7.4 94 0.4 W 11 20 6 11 - - 0.4
27/07:00am 8.2 5.6 7.6 96 0.3 W 11 22 6 12 - - 0.4
27/06:30am 8.2 5.2 7.8 97 0.2 W 13 26 7 14 - - 0.4
27/06:00am 8.0 4.6 7.7 98 0.1 W 15 32 8 17 - - 0.4
27/05:30am 8.0 5.0 7.7 98 0.1 W 13 26 7 14 - - 0.4
27/05:00am 8.1 5.1 7.8 98 0.1 W 13 26 7 14 - - 0.4
27/04:30am 8.3 5.0 8.0 98 0.1 W 15 28 8 15 - - 0.4
27/04:00am 8.3 5.3 7.9 97 0.2 W 13 26 7 14 - - 0.2
27/03:30am 8.3 4.9 7.5 95 0.4 W 15 28 8 15 - - 0.2
27/03:00am 9.2 5.7 7.0 86 1.1 W 15 30 8 16 - - 0.0
27/02:30am 9.1 5.5 6.9 86 1.0 W 15 28 8 15 - - 0.0
27/02:00am 9.0 5.7 6.6 85 1.1 W 13 22 7 12 - - 0.0
27/01:30am 9.0 5.7 6.3 83 1.3 W 13 28 7 15 - - 0.0
27/01:00am 8.8 5.5 6.4 85 1.1 W 13 26 7 14 - - 0.0
27/12:30am 8.8 5.5 6.3 84 1.2 W 13 22 7 12 - - 0.0
27/12:00am 8.6 5.3 6.4 86 1.0 W 13 22 7 12 - - 0.0
 
Date/Time
EST
Temp
°C
App
Temp
°C
Dew
Point
Rel
Hum
%
Delta-T
°C
Wind Press
QNH
hPa
Press
MSL
hPa
Rain
since 9 am
mm
Dir
 
Spd
km/h
Gust
km/h
Spd
kts
Gust
kts
26/11:30pm 8.6 5.3 6.4 86 1.0 W 13 20 7 11 - - 0.0
26/11:00pm 8.5 5.2 6.6 88 0.9 W 13 20 7 11 - - 0.0
26/10:30pm 8.5 5.6 6.6 88 0.9 W 11 17 6 9 - - 0.0
26/10:00pm 8.9 5.7 6.7 86 1.0 W 13 26 7 14 - - 0.0
26/09:30pm 8.9 5.0 6.9 87 1.0 W 17 39 9 21 - - 0.0
26/09:00pm 8.9 5.4 7.0 88 0.9 W 15 28 8 15 - - 0.0
26/08:30pm 9.0 6.3 7.5 90 0.7 W 11 24 6 13 - - 0.0
26/08:00pm 9.2 6.2 7.5 89 0.8 W 13 24 7 13 - - 0.0
26/07:30pm 9.6 5.8 7.4 86 1.1 W 17 30 9 16 - - 0.0
26/07:00pm 9.6 6.6 7.5 87 1.0 W 13 24 7 13 - - 0.0
26/06:30pm 9.6 7.3 7.5 87 1.0 W 9 15 5 8 - - 0.0
26/06:00pm 9.6 7.3 7.5 87 1.0 W 9 22 5 12 - - 0.0
26/05:30pm 10.0 7.4 7.8 86 1.1 W 11 20 6 11 - - 0.0
26/05:00pm 10.1 7.9 8.0 87 1.0 WSW 9 20 5 11 - - 0.0
26/04:30pm 10.2 7.3 8.0 86 1.1 W 13 24 7 13 - - 0.0
26/04:00pm 10.3 8.1 7.9 85 1.2 WSW 9 22 5 12 - - 0.0
26/03:30pm 10.1 7.1 7.9 86 1.1 WSW 13 30 7 16 - - 0.0
26/03:00pm 10.2 6.9 8.0 86 1.1 WSW 15 33 8 18 - - 0.0
26/02:30pm 10.4 8.3 8.2 86 1.1 W 9 19 5 10 - - 0.0
26/02:00pm 10.3 7.3 7.7 84 1.3 WSW 13 28 7 15 - - 0.0
26/01:30pm 10.5 6.6 7.2 80 1.6 WSW 17 28 9 15 - - 0.0
26/01:00pm 10.3 7.2 7.4 82 1.4 W 13 35 7 19 - - 0.0
26/12:30pm 10.0 6.5 7.1 82 1.4 W 15 33 8 18 - - 0.0
26/12:00pm 10.0 6.1 7.1 82 1.4 WSW 17 30 9 16 - - 0.0
26/11:30am 9.8 6.4 7.7 87 1.0 WSW 15 30 8 16 - - 0.0
26/11:00am 10.4 7.3 8.8 90 0.8 W 15 26 8 14 - - 0.0
26/10:30am 9.5 6.9 9.4 99 0.1 WSW 13 33 7 18 - - 0.0
26/10:00am 9.5 6.9 9.4 99 0.1 WSW 13 24 7 13 - - 0.0
26/09:30am 9.4 6.0 9.3 99 0.1 WSW 17 39 9 21 - - 0.0
26/09:00am 9.3 6.7 9.2 99 0.1 W 13 30 7 16 - - 10.0
26/08:30am 9.2 6.2 9.1 99 0.1 WSW 15 35 8 19 - - 10.0
26/08:00am 9.3 6.3 9.2 99 0.1 WSW 15 30 8 16 - - 10.0
26/07:30am 9.5 6.2 9.4 99 0.1 WSW 17 35 9 19 - - 9.6
26/07:00am 9.8 6.2 9.7 99 0.1 WSW 19 33 10 18 - - 8.6
26/06:30am 10.2 7.4 10.1 99 0.1 WSW 15 33 8 18 - - 6.4
26/06:00am 10.6 8.3 10.4 99 0.1 WSW 13 30 7 16 - - 4.4
26/05:30am 10.8 8.9 10.6 99 0.1 WSW 11 30 6 16 - - 3.2
26/05:00am 10.9 8.7 10.7 99 0.1 WSW 13 24 7 13 - - 3.0
26/04:30am 11.0 9.6 10.8 99 0.1 WSW 9 22 5 12 - - 3.0
26/04:00am 11.0 9.2 10.8 99 0.1 WSW 11 20 6 11 - - 2.6
26/03:30am 11.0 9.2 10.8 99 0.1 WSW 11 24 6 13 - - 2.4
26/03:00am 10.9 9.4 10.7 99 0.1 W 9 20 5 11 - - 2.4
26/02:30am 10.9 9.4 10.7 99 0.1 WSW 9 19 5 10 - - 2.4
26/02:00am 10.9 9.1 10.7 99 0.1 W 11 20 6 11 - - 2.4
26/01:30am 11.0 9.9 10.8 99 0.1 WSW 7 17 4 9 - - 2.0
26/01:00am 11.0 9.6 10.8 99 0.1 W 9 17 5 9 - - 2.0
26/12:30am 10.9 9.8 10.7 99 0.1 W 7 11 4 6 - - 2.0
26/12:00am 10.8 9.3 10.6 99 0.1 W 9 17 5 9 - - 2.0
 
Date/Time
EST
Temp
°C
App
Temp
°C
Dew
Point
Rel
Hum
%
Delta-T
°C
Wind Press
QNH
hPa
Press
MSL
hPa
Rain
since 9 am
mm
Dir
 
Spd
km/h
Gust
km/h
Spd
kts
Gust
kts
25/11:30pm 10.6 9.4 10.3 98 0.2 W 7 13 4 7 - - 2.0
25/11:00pm 10.4 8.8 10.1 98 0.2 W 9 11 5 6 - - 2.0
25/10:30pm 10.5 8.8 10.0 97 0.3 W 9 17 5 9 - - 2.0
25/10:00pm 10.4 8.7 9.8 96 0.3 W 9 15 5 8 - - 2.0

Other Formats:

Comma delimited format used in spreadsheet applications
http://www.bom.gov.au/fwo/IDV60801/IDV60801.94930.axf

JavaScript Object Notation format (JSON) in row-major order
http://www.bom.gov.au/fwo/IDV60801/IDV60801.94930.json